createdAt,value
2023-05-22T00:02:08.569Z,73.04
2023-05-22T00:04:36.560Z,73.08
2023-05-22T00:07:06.687Z,73.32
2023-05-22T00:09:34.472Z,73.42
2023-05-22T00:12:02.182Z,73.53
2023-05-22T00:14:29.966Z,73.74
2023-05-22T00:16:58.474Z,74.13
2023-05-22T00:19:26.426Z,74.37
2023-05-22T00:21:55.388Z,74.38
2023-05-22T00:24:23.072Z,74.75
2023-05-22T00:26:50.695Z,74.77
2023-05-22T00:29:18.454Z,74.70
2023-05-22T00:31:46.102Z,74.81
2023-05-22T00:34:13.886Z,74.99
2023-05-22T00:36:42.215Z,75.17
2023-05-22T00:39:09.962Z,75.26
2023-05-22T00:41:38.914Z,75.52
2023-05-22T00:44:08.203Z,75.62
2023-05-22T00:46:36.635Z,75.80
2023-05-22T00:49:04.912Z,75.90
2023-05-22T00:51:33.110Z,76.02
2023-05-22T00:54:00.880Z,76.27
2023-05-22T00:56:29.198Z,76.52
2023-05-22T00:58:57.028Z,76.67
2023-05-22T01:01:26.824Z,76.79
2023-05-22T01:03:55.882Z,77.10
2023-05-22T01:06:24.522Z,77.34
2023-05-22T01:08:52.249Z,77.47
2023-05-22T01:11:32.040Z,77.76
2023-05-22T01:14:23.545Z,78.03
2023-05-22T01:17:12.282Z,78.18
2023-05-22T01:20:01.621Z,78.37
2023-05-22T01:23:08.791Z,78.55
2023-05-22T01:26:24.794Z,78.65
2023-05-22T01:29:21.716Z,78.84
2023-05-22T01:31:52.880Z,79.00
2023-05-22T01:34:21.570Z,79.23
2023-05-22T01:36:54.449Z,79.50
2023-05-22T01:39:25.742Z,79.54
2023-05-22T01:41:53.792Z,79.55
2023-05-22T01:44:21.589Z,79.63
2023-05-22T01:46:49.368Z,79.76
2023-05-22T01:49:17.926Z,79.79
2023-05-22T01:52:03.750Z,79.78
2023-05-22T01:54:39.899Z,80.11
2023-05-22T01:57:27.453Z,80.38
2023-05-22T02:00:15.251Z,80.39
2023-05-22T02:02:48.469Z,80.81
2023-05-22T02:05:18.886Z,80.79
2023-05-22T02:07:48.416Z,81.00
2023-05-22T02:10:17.604Z,81.13
2023-05-22T02:12:46.049Z,80.94
2023-05-22T02:15:14.613Z,80.98
2023-05-22T02:17:42.606Z,81.07
2023-05-22T02:20:14.661Z,81.31
2023-05-22T02:22:44.408Z,81.31
2023-05-22T02:25:16.981Z,81.26
2023-05-22T02:27:47.451Z,81.32
2023-05-22T02:30:15.600Z,81.34
2023-05-22T02:32:43.942Z,81.42
2023-05-22T02:35:11.803Z,81.67
2023-05-22T02:37:39.708Z,81.79
2023-05-22T02:40:10.121Z,81.81
2023-05-22T02:42:37.944Z,81.75
2023-05-22T02:45:07.088Z,81.92
2023-05-22T02:47:34.886Z,82.08
2023-05-22T02:50:03.326Z,82.16
2023-05-22T02:52:32.321Z,82.25
2023-05-22T02:54:59.982Z,82.49
2023-05-22T02:57:28.005Z,82.59
2023-05-22T02:59:57.669Z,82.60
2023-05-22T03:02:28.469Z,82.67
2023-05-22T03:04:59.143Z,82.77
2023-05-22T03:07:27.109Z,82.87
2023-05-22T03:09:55.384Z,83.03
2023-05-22T03:12:23.966Z,83.10
2023-05-22T03:14:51.702Z,83.14
2023-05-22T03:17:19.462Z,83.18
2023-05-22T03:19:47.139Z,83.28
2023-05-22T03:22:14.875Z,83.42
2023-05-22T03:24:42.678Z,83.44
2023-05-22T03:27:11.609Z,83.40
2023-05-22T03:29:39.250Z,83.46
2023-05-22T03:32:07.182Z,83.40
2023-05-22T03:34:34.999Z,83.24
2023-05-22T03:37:02.767Z,82.99
2023-05-22T03:39:30.519Z,82.83
2023-05-22T03:41:58.305Z,82.76
2023-05-22T03:44:25.940Z,82.58
2023-05-22T03:46:54.190Z,82.38
2023-05-22T03:49:22.934Z,82.15
2023-05-22T03:51:50.984Z,81.84
2023-05-22T03:54:19.024Z,81.63
2023-05-22T03:56:46.911Z,81.42
2023-05-22T03:59:14.618Z,81.24
2023-05-22T04:01:42.832Z,80.89
2023-05-22T04:04:12.271Z,80.44
2023-05-22T04:06:43.392Z,80.03
2023-05-22T04:09:12.364Z,79.65
2023-05-22T04:11:42.270Z,79.22
2023-05-22T04:14:10.361Z,78.95
2023-05-22T04:16:38.481Z,78.77
2023-05-22T04:19:06.766Z,78.77
2023-05-22T04:21:35.583Z,78.62
2023-05-22T04:24:07.310Z,78.35
2023-05-22T04:26:40.423Z,77.91
2023-05-22T04:29:11.109Z,77.35
2023-05-22T04:31:39.022Z,77.10
2023-05-22T04:34:09.317Z,76.90
2023-05-22T04:36:39.081Z,76.70
2023-05-22T04:39:07.173Z,76.28
2023-05-22T04:41:35.579Z,75.84
2023-05-22T04:44:04.129Z,75.03
2023-05-22T04:46:34.738Z,74.38
2023-05-22T04:49:03.477Z,74.61
2023-05-22T04:51:33.064Z,74.04
2023-05-22T04:54:00.969Z,73.59
2023-05-22T04:56:36.328Z,73.24
2023-05-22T04:59:09.632Z,72.50
2023-05-22T05:01:38.802Z,71.90
2023-05-22T05:04:16.112Z,71.11
2023-05-22T05:06:45.253Z,70.55
2023-05-22T05:09:14.972Z,69.84
2023-05-22T05:11:42.891Z,69.45
2023-05-22T05:14:11.750Z,69.54
2023-05-22T05:16:41.262Z,68.03
2023-05-22T05:22:53.778Z,66.58
2023-05-22T05:25:21.839Z,65.61
2023-05-22T05:27:50.868Z,64.83
2023-05-22T05:30:20.607Z,64.26
2023-05-22T05:32:49.283Z,64.44
2023-05-22T05:35:20.280Z,64.32
2023-05-22T05:37:48.072Z,62.85
2023-05-22T05:40:17.262Z,62.23
2023-05-22T05:42:45.089Z,61.20
2023-05-22T05:45:13.627Z,59.80
2023-05-22T05:47:42.496Z,59.07
2023-05-22T05:50:11.089Z,57.78
2023-05-22T05:52:38.852Z,55.35
2023-05-22T05:55:06.748Z,51.54
2023-05-22T05:57:34.902Z,50.62
2023-05-22T06:00:04.584Z,48.62
2023-05-22T06:02:56.493Z,46.41
2023-05-22T06:05:27.347Z,45.14
2023-05-22T06:07:58.347Z,44.65
2023-05-22T06:10:26.429Z,44.86
2023-05-22T06:12:54.199Z,45.24
2023-05-22T06:15:22.082Z,46.32
2023-05-22T06:17:49.985Z,46.97
2023-05-22T06:20:17.717Z,47.66
2023-05-22T06:22:46.409Z,48.79
2023-05-22T06:25:14.259Z,48.08
2023-05-22T06:27:42.759Z,46.68
2023-05-22T06:30:10.962Z,46.80
2023-05-22T06:32:38.957Z,47.82
2023-05-22T06:35:08.663Z,46.69
2023-05-22T06:37:37.900Z,44.42
2023-05-22T06:40:07.097Z,42.41
2023-05-22T06:42:35.208Z,42.91
2023-05-22T06:45:03.137Z,40.75
2023-05-22T06:47:32.743Z,38.87
2023-05-22T06:50:00.427Z,38.31
2023-05-22T06:52:29.734Z,38.70
2023-05-22T06:55:04.324Z,39.08
2023-05-22T06:57:33.149Z,39.12
2023-05-22T07:00:01.517Z,38.40
2023-05-22T07:02:29.294Z,34.33
2023-05-22T07:04:57.050Z,34.63
2023-05-22T07:07:24.885Z,35.87
2023-05-22T07:09:52.649Z,35.33
2023-05-22T07:12:21.051Z,34.93
2023-05-22T07:14:48.778Z,34.55
2023-05-22T07:17:16.884Z,35.32
2023-05-22T07:19:45.145Z,34.99
2023-05-22T07:22:12.949Z,34.47
2023-05-22T07:24:40.694Z,33.48
2023-05-22T07:27:09.618Z,31.70
2023-05-22T07:29:38.943Z,32.87
2023-05-22T07:32:08.678Z,33.92
2023-05-22T07:34:36.390Z,33.50
2023-05-22T07:37:08.983Z,31.60
2023-05-22T07:39:36.805Z,31.35
2023-05-22T07:42:04.988Z,32.80
2023-05-22T07:44:33.704Z,33.66
2023-05-22T07:47:01.499Z,32.82
2023-05-22T07:49:29.887Z,31.61
2023-05-22T07:51:58.257Z,30.21
2023-05-22T07:54:26.310Z,30.61
2023-05-22T07:56:56.168Z,31.81
2023-05-22T07:59:25.555Z,31.78
2023-05-22T08:01:54.212Z,31.97
2023-05-22T08:04:22.396Z,32.16
2023-05-22T08:06:50.862Z,32.41
2023-05-22T08:09:21.250Z,31.65
2023-05-22T08:11:50.158Z,29.56
2023-05-22T08:14:20.219Z,28.75
2023-05-22T08:16:48.407Z,28.85
2023-05-22T08:19:16.912Z,28.28
2023-05-22T08:21:45.527Z,29.34
2023-05-22T08:24:13.665Z,29.44
2023-05-22T08:26:43.292Z,29.83
2023-05-22T08:29:11.768Z,30.67
2023-05-22T08:31:39.567Z,30.36
2023-05-22T08:34:13.574Z,28.78
2023-05-22T08:36:41.537Z,27.87
2023-05-22T08:39:12.225Z,28.63
2023-05-22T08:41:40.127Z,28.34
2023-05-22T08:44:08.550Z,28.80
2023-05-22T08:46:41.947Z,30.85
2023-05-22T08:49:10.918Z,30.44
2023-05-22T08:51:40.642Z,28.74
2023-05-22T08:54:10.136Z,28.09
2023-05-22T08:56:53.038Z,25.37
2023-05-22T08:59:24.568Z,26.06
2023-05-22T09:01:52.871Z,26.40
2023-05-22T09:04:24.349Z,26.86
2023-05-22T09:06:53.081Z,28.20
2023-05-22T09:09:21.194Z,27.98
2023-05-22T09:11:49.962Z,27.52
2023-05-22T09:14:18.754Z,28.18
2023-05-22T09:16:53.118Z,26.87
2023-05-22T09:19:21.547Z,28.40
2023-05-22T09:21:49.887Z,29.91
2023-05-22T09:24:18.727Z,29.43
2023-05-22T09:26:48.501Z,30.73
2023-05-22T09:29:17.064Z,30.46
2023-05-22T09:31:45.232Z,31.46
2023-05-22T09:34:17.839Z,31.94
2023-05-22T09:36:45.819Z,30.96
2023-05-22T09:39:13.776Z,31.57
2023-05-22T09:41:41.512Z,30.98
2023-05-22T09:44:14.134Z,30.07
2023-05-22T09:46:45.338Z,30.33
2023-05-22T09:49:15.789Z,30.57
2023-05-22T09:51:49.523Z,30.37
2023-05-22T09:54:20.067Z,29.35
2023-05-22T09:56:50.342Z,28.47
2023-05-22T09:59:26.897Z,29.31
2023-05-22T10:01:55.372Z,29.91
2023-05-22T10:04:24.118Z,31.55
2023-05-22T10:11:11.935Z,30.98
2023-05-22T10:13:41.472Z,30.85
2023-05-22T10:20:29.763Z,31.68
2023-05-22T10:22:57.654Z,32.08
2023-05-22T10:25:26.333Z,32.31
2023-05-22T10:27:55.726Z,32.97
2023-05-22T10:30:44.505Z,33.14
2023-05-22T10:33:20.112Z,32.47
2023-05-22T10:35:59.217Z,31.95
2023-05-22T10:38:30.051Z,31.65
2023-05-22T10:41:04.422Z,32.65
2023-05-22T10:43:33.255Z,32.41
2023-05-22T10:46:04.290Z,32.61
2023-05-22T10:48:53.438Z,32.22
2023-05-22T10:51:23.205Z,32.63
2023-05-22T10:54:02.700Z,33.61
2023-05-22T10:56:50.587Z,33.21
2023-05-22T10:59:35.332Z,32.69
2023-05-22T11:02:06.514Z,32.41
2023-05-22T11:04:34.887Z,33.36
2023-05-22T11:07:07.918Z,32.96
2023-05-22T11:09:48.803Z,30.81
2023-05-22T11:12:31.168Z,30.20
2023-05-22T11:15:06.139Z,29.38
2023-05-22T11:17:41.608Z,29.42
2023-05-22T11:20:13.268Z,29.62
2023-05-22T11:22:52.230Z,29.87
2023-05-22T11:25:20.387Z,30.87
2023-05-22T11:27:49.276Z,30.89
2023-05-22T11:30:17.535Z,29.93
2023-05-22T11:32:45.985Z,30.04
2023-05-22T11:35:18.457Z,30.29
2023-05-22T11:37:47.638Z,30.39
2023-05-22T11:40:18.111Z,30.36
2023-05-22T11:42:47.672Z,28.68
2023-05-22T11:45:16.525Z,26.84
2023-05-22T11:47:47.117Z,26.66
2023-05-22T11:50:17.930Z,24.68
2023-05-22T11:52:53.834Z,26.47
2023-05-22T11:55:23.956Z,28.00
2023-05-22T11:57:55.891Z,27.99
2023-05-22T12:00:27.805Z,27.72
2023-05-22T12:02:56.696Z,27.29
2023-05-22T12:05:24.832Z,26.05
2023-05-22T12:07:53.139Z,27.08
2023-05-22T12:10:21.203Z,25.94
2023-05-22T12:12:49.193Z,25.00
2023-05-22T12:15:21.423Z,25.76
2023-05-22T12:17:50.529Z,26.32
2023-05-22T12:20:19.199Z,27.53
2023-05-22T12:22:49.545Z,29.22
2023-05-22T12:25:17.760Z,29.29
2023-05-22T12:27:50.212Z,30.40
2023-05-22T12:30:19.270Z,30.14
2023-05-22T12:32:50.329Z,29.68
2023-05-22T12:35:19.659Z,30.94
2023-05-22T12:37:53.176Z,31.10
2023-05-22T12:40:22.446Z,30.60
2023-05-22T12:42:52.938Z,31.35
2023-05-22T12:45:21.435Z,32.33
2023-05-22T12:47:49.684Z,32.40
2023-05-22T12:50:19.208Z,31.53
2023-05-22T12:52:48.205Z,30.26
2023-05-22T12:55:16.112Z,27.88
2023-05-22T12:57:52.186Z,27.43
2023-05-22T13:00:20.592Z,26.28
2023-05-22T13:02:51.236Z,26.27
2023-05-22T13:05:21.076Z,25.99
2023-05-22T13:07:49.518Z,25.78
2023-05-22T13:10:21.610Z,25.17
2023-05-22T13:12:51.699Z,26.41
2023-05-22T13:15:20.364Z,25.96
2023-05-22T13:17:50.442Z,25.95
2023-05-22T13:20:32.364Z,26.42
2023-05-22T13:23:01.254Z,25.94
2023-05-22T13:25:36.216Z,26.73
2023-05-22T13:28:05.439Z,26.65
2023-05-22T13:30:35.583Z,25.38
2023-05-22T13:33:04.147Z,26.37
2023-05-22T13:35:33.078Z,25.24
2023-05-22T13:38:02.024Z,25.17
2023-05-22T13:40:31.525Z,26.83
2023-05-22T13:43:02.653Z,27.41
2023-05-22T13:45:32.215Z,26.89
2023-05-22T13:48:01.340Z,26.67
2023-05-22T13:53:13.900Z,26.36
2023-05-22T13:55:44.580Z,27.43
2023-05-22T13:58:12.830Z,28.75
2023-05-22T14:00:44.654Z,29.16
2023-05-22T14:03:17.813Z,29.67
2023-05-22T14:05:59.395Z,30.05
2023-05-22T14:08:27.766Z,30.55
2023-05-22T14:10:55.918Z,30.24
2023-05-22T14:13:23.802Z,30.17
2023-05-22T14:15:51.682Z,29.85
2023-05-22T14:18:19.802Z,27.97
2023-05-22T14:20:47.695Z,27.45
2023-05-22T14:23:15.762Z,27.85
2023-05-22T14:25:43.929Z,27.05
2023-05-22T14:28:14.598Z,26.93
2023-05-22T14:30:43.118Z,26.97
2023-05-22T14:33:12.588Z,26.10
2023-05-22T14:35:41.066Z,26.09
2023-05-22T14:38:09.136Z,26.28
2023-05-22T14:40:36.981Z,27.32
2023-05-22T14:43:04.743Z,27.33
2023-05-22T14:45:32.629Z,28.59
2023-05-22T14:48:01.364Z,29.57
2023-05-22T14:50:29.483Z,29.74
2023-05-22T14:52:57.805Z,29.60
2023-05-22T14:55:32.168Z,28.69
2023-05-22T14:58:02.194Z,28.25
2023-05-22T15:00:33.341Z,27.24
2023-05-22T15:03:05.504Z,26.28
2023-05-22T15:05:33.480Z,25.45
2023-05-22T15:08:03.496Z,26.32
2023-05-22T15:10:32.747Z,25.46
2023-05-22T15:13:01.514Z,24.71
2023-05-22T15:15:29.560Z,24.74
2023-05-22T15:18:02.807Z,24.37
2023-05-22T15:20:32.270Z,25.18
2023-05-22T15:23:03.472Z,26.56
2023-05-22T15:25:36.620Z,26.77
2023-05-22T15:28:11.075Z,27.43
2023-05-22T15:30:42.786Z,27.95
2023-05-22T15:33:13.150Z,26.92
2023-05-22T15:35:42.047Z,26.15
2023-05-22T15:38:13.327Z,26.79
2023-05-22T15:40:41.854Z,26.28
2023-05-22T15:43:10.746Z,25.99
2023-05-22T15:45:39.128Z,25.40
2023-05-22T15:48:07.306Z,25.84
2023-05-22T15:50:35.626Z,26.52
2023-05-22T15:53:03.753Z,27.49
2023-05-22T15:55:35.685Z,28.40
2023-05-22T15:58:06.277Z,29.11
2023-05-22T16:00:41.231Z,30.08
2023-05-22T16:03:11.380Z,32.20
2023-05-22T16:05:40.166Z,31.81
2023-05-22T16:08:10.490Z,31.42
2023-05-22T16:10:41.477Z,31.70
2023-05-22T16:13:12.917Z,32.85
2023-05-22T16:15:41.342Z,33.31
2023-05-22T16:18:09.802Z,33.33
2023-05-22T16:20:38.910Z,32.81
2023-05-22T16:23:06.776Z,33.52
2023-05-22T16:25:35.881Z,33.34
2023-05-22T16:28:05.614Z,33.05
2023-05-22T16:30:35.950Z,33.93
2023-05-22T16:33:03.788Z,34.05
2023-05-22T16:35:34.261Z,33.64
2023-05-22T16:38:02.226Z,33.73
2023-05-22T16:40:38.209Z,34.40
2023-05-22T16:43:09.915Z,34.04
2023-05-22T16:45:38.978Z,33.86
2023-05-22T16:48:08.312Z,34.47
2023-05-22T16:50:36.312Z,34.76
2023-05-22T16:53:04.048Z,33.56
2023-05-22T16:55:32.652Z,34.03
2023-05-22T16:58:00.517Z,34.56
2023-05-22T17:00:28.648Z,34.23
2023-05-22T17:02:56.977Z,34.69
2023-05-22T17:05:26.426Z,34.84
2023-05-22T17:07:54.362Z,34.76
2023-05-22T17:10:22.458Z,34.99
2023-05-22T17:12:50.450Z,35.00
2023-05-22T17:17:49.026Z,35.21
2023-05-22T17:20:16.853Z,35.85
2023-05-22T17:22:45.375Z,36.24
2023-05-22T17:25:14.500Z,36.10
2023-05-22T17:27:42.332Z,36.25
2023-05-22T17:30:11.132Z,36.54
2023-05-22T17:32:39.257Z,36.53
2023-05-22T17:35:07.242Z,36.58
2023-05-22T17:37:35.079Z,36.68
2023-05-22T17:40:03.945Z,37.09
2023-05-22T17:42:31.654Z,37.43
2023-05-22T17:44:59.405Z,37.55
2023-05-22T17:47:30.584Z,37.91
2023-05-22T17:49:58.495Z,38.35
2023-05-22T17:52:27.004Z,38.65
2023-05-22T17:54:57.776Z,38.94
2023-05-22T17:57:28.138Z,39.47
2023-05-22T17:59:55.894Z,39.78
2023-05-22T18:02:24.102Z,40.33
2023-05-22T18:04:52.313Z,40.99
2023-05-22T18:07:20.268Z,41.58
2023-05-22T18:09:48.526Z,42.71
2023-05-22T18:12:31.335Z,43.40
2023-05-22T18:14:59.803Z,44.21
2023-05-22T18:17:27.808Z,45.05
2023-05-22T18:19:57.253Z,45.78
2023-05-22T18:22:26.655Z,46.53
2023-05-22T18:24:54.664Z,46.93
2023-05-22T18:27:23.644Z,47.69
2023-05-22T18:29:53.956Z,48.00
2023-05-22T18:32:22.854Z,48.81
2023-05-22T18:34:52.298Z,49.30
2023-05-22T18:37:21.283Z,49.48
2023-05-22T18:39:54.565Z,49.84
2023-05-22T18:42:22.366Z,50.15
2023-05-22T18:44:50.738Z,50.49
2023-05-22T18:47:19.551Z,51.00
2023-05-22T18:49:48.748Z,51.49
2023-05-22T18:52:21.058Z,52.27
2023-05-22T18:54:52.507Z,52.74
2023-05-22T18:57:20.253Z,53.42
2023-05-22T18:59:51.880Z,53.73
2023-05-22T19:02:21.834Z,54.34
2023-05-22T19:04:50.976Z,54.68
2023-05-22T19:07:18.921Z,55.05
2023-05-22T19:10:35.789Z,55.35
2023-05-22T19:14:32.902Z,56.16
2023-05-22T19:17:00.712Z,56.32
2023-05-22T19:19:28.514Z,56.63
2023-05-22T19:21:56.852Z,56.80
2023-05-22T19:24:27.383Z,57.20
2023-05-22T19:26:57.390Z,57.20
2023-05-22T19:29:25.171Z,56.87
2023-05-22T19:31:52.960Z,57.09
2023-05-22T19:34:20.914Z,57.98
2023-05-22T19:36:51.701Z,58.58
2023-05-22T19:39:19.456Z,58.77
2023-05-22T19:41:47.542Z,58.92
2023-05-22T19:44:15.197Z,58.82
2023-05-22T19:46:43.691Z,58.62
2023-05-22T19:49:11.484Z,58.85
2023-05-22T19:51:40.666Z,59.53
2023-05-22T19:54:08.357Z,60.41
2023-05-22T19:56:36.331Z,60.98
2023-05-22T19:59:04.030Z,61.34
2023-05-22T20:01:31.777Z,61.79
2023-05-22T20:04:01.027Z,62.10
2023-05-22T20:06:31.695Z,62.24
2023-05-22T20:08:59.512Z,62.24
2023-05-22T20:11:28.924Z,62.33
2023-05-22T20:13:57.699Z,62.55
2023-05-22T20:16:28.544Z,62.87
2023-05-22T20:18:57.255Z,63.36
2023-05-22T20:21:24.990Z,63.87
2023-05-22T20:23:53.305Z,64.29
2023-05-22T20:26:21.564Z,64.43
2023-05-22T20:28:49.639Z,64.73
2023-05-22T20:31:17.560Z,64.63
2023-05-22T20:33:45.494Z,64.65
2023-05-22T20:36:17.022Z,64.71
2023-05-22T20:38:44.690Z,65.24
2023-05-22T20:41:14.087Z,65.61
2023-05-22T20:43:44.655Z,65.94
2023-05-22T20:46:12.496Z,66.00
2023-05-22T20:48:46.872Z,66.21
2023-05-22T20:51:20.487Z,66.26
2023-05-22T20:53:48.546Z,66.24
2023-05-22T20:56:16.330Z,65.94
2023-05-22T20:58:44.025Z,65.93
2023-05-22T21:01:11.715Z,66.14
2023-05-22T21:03:41.368Z,66.20
2023-05-22T21:06:09.509Z,66.45
2023-05-22T21:08:37.144Z,66.82
2023-05-22T21:11:06.921Z,67.25
2023-05-22T21:14:17.886Z,67.88
2023-05-22T21:16:44.155Z,67.90
2023-05-22T21:19:10.559Z,68.25
2023-05-22T21:21:40.858Z,68.58
2023-05-22T21:24:10.328Z,68.83
2023-05-22T21:26:36.889Z,69.14
2023-05-22T21:29:03.912Z,69.39
2023-05-22T21:31:31.496Z,69.71
2023-05-22T21:33:58.601Z,69.95
2023-05-22T21:36:25.500Z,70.15
2023-05-22T21:38:52.654Z,70.28
2023-05-22T21:41:19.051Z,70.39
2023-05-22T21:43:46.798Z,70.46
2023-05-22T21:46:13.140Z,70.82
2023-05-22T21:48:39.705Z,70.85
2023-05-22T21:51:06.491Z,70.92
2023-05-22T21:53:32.811Z,70.97
2023-05-22T21:55:59.096Z,71.02
2023-05-22T21:58:25.672Z,71.18
2023-05-22T22:00:51.987Z,71.58
2023-05-22T22:03:18.323Z,71.87
2023-05-22T22:05:45.094Z,71.98
2023-05-22T22:08:11.327Z,71.91
2023-05-22T22:10:38.087Z,71.98
2023-05-22T22:13:05.161Z,72.25
2023-05-22T22:15:33.156Z,72.32
2023-05-22T22:18:01.486Z,72.46
2023-05-22T22:20:43.341Z,72.68
2023-05-22T22:23:10.433Z,72.87
2023-05-22T22:25:59.101Z,73.07
2023-05-22T22:29:41.822Z,73.33
2023-05-22T22:33:18.827Z,73.48
2023-05-22T22:37:09.688Z,73.89
2023-05-22T22:39:38.240Z,74.03
2023-05-22T22:42:06.200Z,74.31
2023-05-22T22:44:34.133Z,74.77
2023-05-22T22:47:02.246Z,75.02
2023-05-22T22:49:32.101Z,75.14
2023-05-22T22:51:59.911Z,75.24
2023-05-22T22:54:27.935Z,75.46
2023-05-22T22:56:55.752Z,75.67
2023-05-22T22:59:23.420Z,75.77
2023-05-22T23:01:51.193Z,76.03
2023-05-22T23:04:19.278Z,76.15
2023-05-22T23:06:47.001Z,76.15
2023-05-22T23:09:15.157Z,76.28
2023-05-22T23:11:42.915Z,76.50
2023-05-22T23:14:10.582Z,76.60
2023-05-22T23:16:42.642Z,76.68
2023-05-22T23:19:11.005Z,76.88
2023-05-22T23:22:35.287Z,77.05
2023-05-22T23:26:12.298Z,77.08
2023-05-22T23:28:39.997Z,77.17
2023-05-22T23:31:09.938Z,77.28
2023-05-22T23:33:38.108Z,77.27
2023-05-22T23:36:06.042Z,77.51
2023-05-22T23:38:33.700Z,77.79
2023-05-22T23:41:01.434Z,77.97
2023-05-22T23:43:29.129Z,78.15
2023-05-22T23:45:57.673Z,78.39
2023-05-22T23:48:25.719Z,78.61
2023-05-22T23:51:26.185Z,78.85
2023-05-22T23:55:04.090Z,78.91
2023-05-22T23:58:42.189Z,79.03
